createdAt,value
2018-04-23T00:02:12.017Z,4.80
2018-04-23T00:04:39.813Z,6.47
2018-04-23T00:07:08.068Z,6.53
2018-04-23T00:09:35.983Z,7.10
2018-04-23T00:12:05.057Z,6.10
2018-04-23T00:14:33.109Z,5.47
2018-04-23T00:17:01.291Z,6.53
2018-04-23T00:19:29.582Z,7.23
2018-04-23T00:21:57.681Z,7.27
2018-04-23T00:24:26.552Z,8.23
2018-04-23T00:26:54.832Z,5.30
2018-04-23T00:29:22.722Z,5.77
2018-04-23T00:31:50.853Z,5.63
2018-04-23T00:34:18.708Z,4.93
2018-04-23T00:36:46.634Z,8.13
2018-04-23T00:39:15.509Z,6.50
2018-04-23T00:41:43.389Z,6.00
2018-04-23T00:44:11.624Z,6.43
2018-04-23T00:46:39.748Z,5.00
2018-04-23T00:49:07.749Z,7.73
2018-04-23T00:51:35.680Z,6.07
2018-04-23T00:54:03.557Z,6.23
2018-04-23T00:56:31.455Z,6.83
2018-04-23T00:58:59.396Z,5.93
2018-04-23T01:01:27.487Z,5.67
2018-04-23T01:03:55.670Z,7.23
2018-04-23T01:06:23.648Z,6.10
2018-04-23T01:08:52.330Z,5.10
2018-04-23T01:11:20.221Z,6.57
2018-04-23T01:13:48.686Z,7.27
2018-04-23T01:16:16.564Z,8.30
2018-04-23T01:18:44.627Z,7.67
2018-04-23T01:21:12.723Z,5.07
2018-04-23T01:23:40.781Z,4.93
2018-04-23T01:26:08.621Z,6.53
2018-04-23T01:28:36.346Z,5.53
2018-04-23T01:31:04.606Z,6.73
2018-04-23T01:33:32.763Z,6.87
2018-04-23T01:36:01.811Z,5.27
2018-04-23T01:38:29.930Z,6.63
2018-04-23T01:40:58.087Z,6.47
2018-04-23T01:43:26.099Z,5.03
2018-04-23T01:45:54.268Z,5.23
2018-04-23T01:48:22.869Z,6.40
2018-04-23T01:50:50.954Z,7.13
2018-04-23T01:53:18.942Z,6.03
2018-04-23T01:55:46.963Z,6.00
2018-04-23T01:58:15.972Z,8.07
2018-04-23T02:00:44.813Z,5.60
2018-04-23T02:03:13.492Z,5.63
2018-04-23T02:05:41.548Z,6.90
2018-04-23T02:08:09.627Z,6.23
2018-04-23T02:10:38.688Z,6.30
2018-04-23T02:13:06.802Z,6.43
2018-04-23T02:15:34.681Z,6.90
2018-04-23T02:18:02.737Z,7.83
2018-04-23T02:20:30.838Z,5.03
2018-04-23T02:22:59.001Z,5.40
2018-04-23T02:25:26.981Z,7.30
2018-04-23T02:27:54.767Z,3.83
2018-04-23T02:30:23.130Z,5.30
2018-04-23T02:32:51.893Z,5.43
2018-04-23T02:35:20.407Z,6.83
2018-04-23T02:37:48.874Z,4.33
2018-04-23T02:40:17.177Z,5.00
2018-04-23T02:42:45.064Z,5.90
2018-04-23T02:45:13.322Z,5.50
2018-04-23T02:47:41.207Z,6.17
2018-04-23T02:50:10.045Z,5.27
2018-04-23T02:52:37.671Z,5.67
2018-04-23T02:55:05.829Z,6.27
2018-04-23T02:57:33.633Z,5.67
2018-04-23T03:00:08.352Z,6.10
2018-04-23T03:02:36.144Z,5.40
2018-04-23T03:05:04.065Z,7.53
2018-04-23T03:07:32.574Z,9.70
2018-04-23T03:10:00.524Z,6.23
2018-04-23T03:12:28.618Z,6.50
2018-04-23T03:14:57.416Z,5.07
2018-04-23T03:17:25.167Z,5.20
2018-04-23T03:19:53.332Z,6.47
2018-04-23T03:22:21.412Z,4.20
2018-04-23T03:24:49.489Z,5.93
2018-04-23T03:27:18.177Z,6.07
2018-04-23T03:29:46.771Z,5.93
2018-04-23T03:32:14.944Z,5.33
2018-04-23T03:34:42.885Z,6.17
2018-04-23T03:37:11.132Z,7.10
2018-04-23T03:39:38.979Z,5.97
2018-04-23T03:42:07.944Z,6.67
2018-04-23T03:44:36.268Z,6.17
2018-04-23T03:47:04.800Z,5.47
2018-04-23T03:49:33.660Z,5.57
2018-04-23T03:52:01.598Z,6.17
2018-04-23T03:54:29.630Z,5.80
2018-04-23T03:56:57.543Z,8.07
2018-04-23T03:59:25.310Z,6.63
2018-04-23T04:01:53.392Z,7.27
2018-04-23T04:04:21.464Z,7.23
2018-04-23T04:06:49.253Z,7.50
2018-04-23T04:09:18.972Z,6.67
2018-04-23T04:11:46.815Z,7.63
2018-04-23T04:14:26.628Z,6.83
2018-04-23T04:16:59.927Z,7.50
2018-04-23T04:19:27.638Z,7.90
2018-04-23T04:21:55.599Z,7.20
2018-04-23T04:24:23.737Z,8.40
2018-04-23T04:26:51.419Z,9.93
2018-04-23T04:29:20.160Z,9.20
2018-04-23T04:31:48.220Z,8.10
2018-04-23T04:34:16.322Z,7.57
2018-04-23T04:36:44.362Z,6.50
2018-04-23T04:39:13.295Z,6.20
2018-04-23T04:41:41.365Z,7.33
2018-04-23T04:44:09.243Z,9.13
2018-04-23T04:46:37.926Z,9.23
2018-04-23T04:49:06.068Z,6.30
2018-04-23T04:51:34.155Z,5.83
2018-04-23T04:54:02.119Z,7.80
2018-04-23T04:56:30.108Z,9.80
2018-04-23T04:58:57.898Z,8.30
2018-04-23T05:01:26.160Z,9.40
2018-04-23T05:03:53.930Z,7.20
2018-04-23T05:06:22.053Z,12.93
2018-04-23T05:08:49.981Z,11.00
2018-04-23T05:11:17.744Z,12.20
2018-04-23T05:13:45.924Z,14.53
2018-04-23T05:16:13.916Z,15.07
2018-04-23T05:18:41.853Z,19.87
2018-04-23T05:21:09.830Z,16.80
2018-04-23T05:23:38.821Z,12.23
2018-04-23T05:26:06.913Z,11.67
2018-04-23T05:28:35.540Z,13.70
2018-04-23T05:31:03.862Z,12.77
2018-04-23T05:33:31.869Z,14.20
2018-04-23T05:35:59.948Z,9.10
2018-04-23T05:38:28.020Z,12.20
2018-04-23T05:40:55.967Z,12.17
2018-04-23T05:43:24.072Z,13.20
2018-04-23T05:45:52.235Z,15.47
2018-04-23T05:48:20.408Z,13.33
2018-04-23T05:50:48.800Z,13.30
2018-04-23T05:53:16.767Z,11.43
2018-04-23T05:55:45.046Z,14.10
2018-04-23T05:58:12.945Z,13.90
2018-04-23T06:00:41.590Z,14.90
2018-04-23T06:03:09.327Z,12.57
2018-04-23T06:05:37.451Z,13.27
2018-04-23T06:08:05.638Z,12.83
2018-04-23T06:10:34.419Z,9.83
2018-04-23T06:13:02.702Z,10.27
2018-04-23T06:15:30.480Z,9.57
2018-04-23T06:17:58.431Z,13.83
2018-04-23T06:20:26.604Z,17.57
2018-04-23T06:22:54.402Z,13.80
2018-04-23T06:25:22.653Z,9.47
2018-04-23T06:27:50.553Z,11.97
2018-04-23T06:30:18.719Z,12.93
2018-04-23T06:32:46.568Z,14.10
2018-04-23T06:35:14.482Z,10.90
2018-04-23T06:37:42.435Z,12.23
2018-04-23T06:40:09.995Z,13.23
2018-04-23T06:42:37.995Z,12.67
2018-04-23T06:45:06.149Z,9.23
2018-04-23T06:47:34.178Z,11.73
2018-04-23T06:50:01.918Z,13.57
2018-04-23T06:52:30.182Z,13.13
2018-04-23T06:54:58.050Z,9.73
2018-04-23T06:57:26.001Z,10.97
2018-04-23T06:59:54.016Z,12.97
2018-04-23T07:02:22.974Z,11.17
2018-04-23T07:05:10.223Z,11.60
2018-04-23T07:07:39.119Z,10.63
2018-04-23T07:10:06.990Z,12.97
2018-04-23T07:12:35.036Z,11.67
2018-04-23T07:15:03.030Z,14.17
2018-04-23T07:17:31.507Z,12.37
2018-04-23T07:19:59.598Z,12.30
2018-04-23T07:22:27.659Z,13.37
2018-04-23T07:24:55.528Z,14.47
2018-04-23T07:27:23.276Z,13.47
2018-04-23T07:29:51.324Z,12.77
2018-04-23T07:32:19.212Z,12.97
2018-04-23T07:34:47.279Z,16.03
2018-04-23T07:37:15.285Z,13.60
2018-04-23T07:39:43.186Z,15.73
2018-04-23T07:42:11.642Z,13.77
2018-04-23T07:44:39.509Z,13.13
2018-04-23T07:47:07.551Z,16.07
2018-04-23T07:49:35.438Z,15.87
2018-04-23T07:52:03.818Z,16.23
2018-04-23T07:54:32.160Z,15.33
2018-04-23T07:57:00.514Z,17.00
2018-04-23T07:59:28.312Z,15.77
2018-04-23T08:01:57.081Z,14.50
2018-04-23T08:04:25.470Z,17.00
2018-04-23T08:06:53.416Z,14.13
2018-04-23T08:09:21.815Z,15.70
2018-04-23T08:11:50.462Z,14.20
2018-04-23T08:14:18.616Z,15.00
2018-04-23T08:16:46.748Z,14.03
2018-04-23T08:19:14.745Z,14.00
2018-04-23T08:21:42.785Z,13.23
2018-04-23T08:24:10.788Z,13.50
2018-04-23T08:26:39.258Z,13.07
2018-04-23T08:29:07.177Z,14.00
2018-04-23T08:31:35.470Z,13.70
2018-04-23T08:34:03.712Z,14.90
2018-04-23T08:36:32.214Z,12.83
2018-04-23T08:39:00.094Z,13.73
2018-04-23T08:41:28.113Z,13.27
2018-04-23T08:43:56.349Z,12.23
2018-04-23T08:46:24.487Z,13.37
2018-04-23T08:48:54.220Z,12.80
2018-04-23T08:51:22.248Z,14.37
2018-04-23T08:53:50.162Z,15.00
2018-04-23T08:56:18.508Z,14.67
2018-04-23T08:58:46.570Z,12.80
2018-04-23T09:01:15.300Z,13.57
2018-04-23T09:03:44.700Z,12.53
2018-04-23T09:06:12.664Z,11.23
2018-04-23T09:08:40.953Z,12.73
2018-04-23T09:11:09.025Z,14.07
2018-04-23T09:13:37.008Z,13.50
2018-04-23T09:16:05.110Z,13.23
2018-04-23T09:18:32.958Z,15.00
2018-04-23T09:21:01.428Z,14.57
2018-04-23T09:23:29.328Z,12.60
2018-04-23T09:25:57.277Z,13.90
2018-04-23T09:28:25.261Z,15.63
2018-04-23T09:30:53.801Z,11.03
2018-04-23T09:33:21.809Z,10.33
2018-04-23T09:35:50.178Z,12.23
2018-04-23T09:38:18.083Z,14.43
2018-04-23T09:40:46.556Z,13.97
2018-04-23T09:43:14.314Z,16.27
2018-04-23T09:45:42.586Z,11.70
2018-04-23T09:48:10.507Z,13.10
2018-04-23T09:50:38.468Z,12.20
2018-04-23T09:53:06.412Z,11.17
2018-04-23T09:55:35.226Z,12.03
2018-04-23T09:58:03.357Z,11.60
2018-04-23T10:00:31.449Z,10.80
2018-04-23T10:02:59.452Z,13.33
2018-04-23T10:05:27.818Z,11.83
2018-04-23T10:07:55.713Z,10.40
2018-04-23T10:10:23.934Z,12.73
2018-04-23T10:12:51.854Z,12.97
2018-04-23T10:15:20.129Z,13.90
2018-04-23T10:17:48.127Z,15.17
2018-04-23T10:20:16.278Z,13.37
2018-04-23T10:22:44.358Z,14.53
2018-04-23T10:25:12.427Z,13.43
2018-04-23T10:27:40.400Z,11.10
2018-04-23T10:30:08.979Z,10.27
2018-04-23T10:32:37.690Z,11.37
2018-04-23T10:35:05.533Z,12.93
2018-04-23T10:37:33.234Z,12.17
2018-04-23T10:40:01.074Z,11.97
2018-04-23T10:42:29.523Z,13.87
2018-04-23T10:44:57.615Z,13.63
2018-04-23T10:47:25.561Z,12.07
2018-04-23T10:49:54.104Z,13.77
2018-04-23T10:52:22.114Z,12.20
2018-04-23T10:54:50.560Z,12.83
2018-04-23T10:57:19.249Z,15.47
2018-04-23T10:59:47.116Z,13.27
2018-04-23T11:02:15.697Z,14.30
2018-04-23T11:04:44.499Z,12.67
2018-04-23T11:07:13.945Z,14.50
2018-04-23T11:09:42.575Z,16.37
2018-04-23T11:12:10.984Z,18.50
2018-04-23T11:14:38.905Z,15.33
2018-04-23T11:17:07.637Z,15.33
2018-04-23T11:19:35.838Z,18.27
2018-04-23T11:22:04.226Z,15.27
2018-04-23T11:24:32.493Z,16.80
2018-04-23T11:27:00.778Z,21.47
2018-04-23T11:29:29.303Z,18.93
2018-04-23T11:31:56.944Z,19.77
2018-04-23T11:34:25.093Z,19.37
2018-04-23T11:36:52.983Z,18.43
2018-04-23T11:39:21.031Z,15.87
2018-04-23T11:41:49.553Z,18.33
2018-04-23T11:44:17.573Z,17.77
2018-04-23T11:46:45.937Z,20.97
2018-04-23T11:49:13.968Z,18.10
2018-04-23T11:51:42.127Z,18.83
2018-04-23T11:54:10.419Z,19.47
2018-04-23T11:56:38.298Z,17.90
2018-04-23T11:59:06.581Z,19.57
2018-04-23T12:01:34.362Z,16.63
2018-04-23T12:04:02.520Z,18.87
2018-04-23T12:06:30.450Z,17.60
2018-04-23T12:08:58.885Z,16.13
2018-04-23T12:11:26.932Z,19.10
2018-04-23T12:13:54.924Z,16.73
2018-04-23T12:16:22.872Z,16.90
2018-04-23T12:18:50.766Z,15.93
2018-04-23T12:21:19.148Z,14.97
2018-04-23T12:23:47.506Z,16.13
2018-04-23T12:26:15.727Z,14.30
2018-04-23T12:28:43.899Z,15.97
2018-04-23T12:31:11.877Z,14.73
2018-04-23T12:47:51.642Z,12.47
2018-04-23T12:50:19.932Z,14.73
2018-04-23T12:52:48.137Z,12.10
2018-04-23T12:55:16.606Z,12.87
2018-04-23T12:57:46.039Z,14.47
2018-04-23T13:00:15.578Z,11.93
2018-04-23T13:02:43.607Z,13.03
2018-04-23T13:05:11.569Z,13.83
2018-04-23T13:07:40.002Z,13.80
2018-04-23T13:10:08.837Z,15.33
2018-04-23T13:12:38.021Z,11.43
2018-04-23T13:15:06.452Z,12.23
2018-04-23T13:17:35.046Z,14.13
2018-04-23T13:20:04.007Z,13.83
2018-04-23T13:22:32.627Z,13.93
2018-04-23T13:25:00.668Z,13.40
2018-04-23T13:27:29.186Z,13.20
2018-04-23T13:29:57.436Z,19.53
2018-04-23T13:32:25.270Z,24.37
2018-04-23T13:34:53.891Z,18.30
2018-04-23T13:37:22.498Z,19.30
2018-04-23T13:39:50.695Z,13.50
2018-04-23T13:42:19.842Z,17.00
2018-04-23T13:44:47.924Z,24.23
2018-04-23T13:47:17.364Z,38.27
2018-04-23T13:49:45.813Z,22.67
2018-04-23T13:52:13.609Z,21.80
2018-04-23T13:54:41.997Z,23.63
2018-04-23T13:57:10.197Z,24.13
2018-04-23T13:59:38.305Z,25.03
2018-04-23T14:02:06.827Z,31.33
2018-04-23T14:04:35.314Z,30.47
2018-04-23T14:07:04.209Z,33.43
2018-04-23T14:09:32.620Z,34.03
2018-04-23T14:12:01.091Z,50.20
2018-04-23T14:14:29.563Z,36.13
2018-04-23T14:16:57.824Z,37.30
2018-04-23T14:19:27.153Z,23.80
2018-04-23T14:21:55.776Z,29.50
2018-04-23T14:24:23.605Z,23.43
2018-04-23T14:26:52.008Z,23.73
2018-04-23T14:29:20.679Z,25.50
2018-04-23T14:31:48.856Z,23.63
2018-04-23T14:34:17.138Z,21.07
2018-04-23T14:36:45.724Z,23.57
2018-04-23T14:39:14.132Z,30.17
2018-04-23T14:41:42.450Z,32.03
2018-04-23T14:44:10.174Z,40.20
2018-04-23T14:46:38.880Z,29.60
2018-04-23T14:49:07.534Z,37.20
2018-04-23T14:51:36.016Z,37.53
2018-04-23T14:54:04.795Z,34.37
2018-04-23T14:56:33.404Z,35.67
2018-04-23T14:59:01.869Z,36.97
2018-04-23T15:01:30.722Z,31.50
2018-04-23T15:03:58.998Z,27.23
2018-04-23T15:06:27.507Z,32.00
2018-04-23T15:08:56.132Z,30.63
2018-04-23T15:11:24.720Z,24.67
2018-04-23T15:13:53.190Z,28.40
2018-04-23T15:16:21.433Z,23.80
2018-04-23T15:18:50.211Z,19.87
2018-04-23T15:21:19.101Z,22.23
2018-04-23T15:23:47.510Z,24.27
2018-04-23T15:26:15.979Z,22.83
2018-04-23T15:28:44.565Z,20.53
2018-04-23T15:31:12.986Z,26.60
2018-04-23T15:33:41.664Z,29.60
2018-04-23T15:36:10.084Z,27.73
2018-04-23T15:38:38.669Z,27.17
2018-04-23T15:41:07.395Z,31.40
2018-04-23T15:43:35.749Z,31.37
2018-04-23T15:46:04.000Z,33.03
2018-04-23T15:48:33.798Z,33.10
2018-04-23T18:24:15.953Z,33.90
2018-04-23T18:26:44.345Z,34.57
2018-04-23T18:29:12.829Z,35.20
2018-04-23T18:31:41.595Z,34.10
2018-04-23T18:34:12.064Z,33.07
2018-04-23T18:36:42.759Z,34.57
2018-04-23T18:39:13.348Z,34.43
2018-04-23T18:41:43.646Z,33.47
2018-04-23T18:44:14.139Z,36.27
2018-04-23T18:46:44.690Z,42.73
2018-04-23T18:49:15.442Z,32.90
2018-04-23T18:51:46.745Z,31.27
2018-04-23T18:54:17.889Z,30.63
2018-04-23T18:56:48.424Z,31.23
2018-04-23T18:59:19.332Z,32.67
2018-04-23T19:01:49.789Z,30.83
2018-04-23T19:04:20.548Z,29.80
2018-04-23T19:06:51.097Z,29.47
2018-04-23T19:09:21.647Z,32.67
2018-04-23T19:11:52.896Z,38.17
2018-04-23T19:14:23.358Z,32.20
2018-04-23T19:16:53.840Z,34.97
2018-04-23T19:19:25.520Z,39.03
2018-04-23T19:21:56.751Z,36.70
2018-04-23T19:24:27.870Z,41.60
2018-04-23T19:26:58.405Z,33.93
2018-04-23T19:29:28.906Z,38.20
2018-04-23T19:31:59.361Z,40.70
2018-04-23T19:34:30.269Z,57.80
2018-04-23T19:37:01.107Z,37.50
2018-04-23T19:39:32.366Z,41.23
2018-04-23T19:42:02.998Z,40.13
2018-04-23T19:44:33.329Z,35.20
2018-04-23T19:47:03.818Z,37.97
2018-04-23T19:49:34.193Z,41.13
2018-04-23T19:52:05.110Z,30.10
2018-04-23T19:54:35.577Z,35.63
2018-04-23T19:57:06.091Z,40.63
2018-04-23T19:59:36.700Z,31.63
2018-04-23T20:02:07.476Z,32.83
2018-04-23T20:04:37.935Z,34.87
2018-04-23T20:07:08.455Z,32.37
2018-04-23T20:09:40.089Z,31.77
2018-04-23T20:12:10.361Z,38.53
2018-04-23T20:14:41.022Z,32.13
2018-04-23T20:17:11.219Z,33.53
2018-04-23T20:19:42.260Z,35.93
2018-04-23T20:22:12.617Z,36.57
2018-04-23T20:24:43.461Z,34.47
2018-04-23T20:27:14.242Z,39.30
2018-04-23T20:29:45.633Z,32.70
2018-04-23T20:32:16.095Z,35.87
2018-04-23T20:34:46.462Z,32.83
2018-04-23T20:37:16.924Z,33.07
2018-04-23T20:39:47.958Z,33.80
2018-04-23T20:42:18.708Z,40.47
2018-04-23T20:44:49.506Z,31.67
2018-04-23T20:47:19.943Z,34.60
2018-04-23T20:49:50.720Z,30.50
2018-04-23T20:52:21.554Z,35.07
2018-04-23T20:54:52.113Z,38.03
2018-04-23T20:57:22.660Z,34.30
2018-04-23T20:59:53.464Z,35.40
2018-04-23T21:02:23.882Z,29.90
2018-04-23T21:04:54.821Z,33.00
2018-04-23T21:07:25.174Z,34.60
2018-04-23T21:09:55.664Z,37.87
2018-04-23T21:12:27.628Z,33.27
2018-04-23T21:14:58.056Z,37.13
2018-04-23T21:17:28.449Z,33.33
2018-04-23T21:19:58.860Z,34.20
2018-04-23T21:22:30.296Z,37.60
2018-04-23T21:25:02.005Z,38.90
2018-04-23T21:27:32.682Z,37.57
2018-04-23T21:30:02.834Z,40.17
2018-04-23T21:32:33.467Z,42.50
2018-04-23T21:35:04.226Z,31.90
2018-04-23T21:37:34.161Z,34.77
2018-04-23T21:40:04.443Z,41.10
2018-04-23T21:42:34.948Z,40.97
2018-04-23T21:45:05.146Z,36.47
2018-04-23T21:47:35.458Z,37.30
2018-04-23T21:50:05.263Z,34.10
2018-04-23T21:52:35.407Z,39.63
2018-04-23T21:55:05.412Z,37.87
2018-04-23T21:57:35.913Z,41.67
2018-04-23T22:00:07.075Z,36.70
2018-04-23T22:02:37.494Z,37.93
2018-04-23T22:05:07.914Z,36.63
2018-04-23T22:07:37.923Z,43.43
2018-04-23T22:10:07.875Z,40.33
2018-04-23T22:12:38.173Z,36.10
2018-04-23T22:15:08.286Z,37.30
2018-04-23T22:17:38.208Z,37.60
2018-04-23T22:20:07.770Z,32.23
2018-04-23T22:22:37.828Z,30.07
2018-04-23T22:25:07.741Z,36.07
2018-04-23T22:27:37.633Z,32.67
2018-04-23T22:30:07.882Z,30.70
2018-04-23T22:32:37.702Z,36.57
2018-04-23T22:35:07.640Z,35.17
2018-04-23T22:37:38.976Z,39.63
2018-04-23T22:40:09.474Z,34.20
2018-04-23T22:42:39.464Z,33.83
2018-04-23T22:45:09.999Z,37.43
2018-04-23T22:47:39.787Z,32.27
2018-04-23T22:50:09.950Z,39.70
2018-04-23T22:52:40.699Z,42.80
2018-04-23T22:55:10.630Z,39.30
2018-04-23T22:57:40.971Z,39.37
2018-04-23T23:00:11.984Z,41.90
2018-04-23T23:02:42.177Z,41.37
2018-04-23T23:05:13.046Z,41.10
2018-04-23T23:07:43.012Z,41.60
2018-04-23T23:10:12.831Z,44.27
2018-04-23T23:12:43.326Z,41.70
2018-04-23T23:15:13.476Z,42.60
2018-04-23T23:17:44.199Z,38.47
2018-04-23T23:20:14.206Z,38.87
2018-04-23T23:22:44.089Z,39.40
2018-04-23T23:25:14.020Z,36.57
2018-04-23T23:27:43.998Z,39.97
2018-04-23T23:30:15.842Z,41.03
2018-04-23T23:32:45.541Z,38.50
2018-04-23T23:35:15.719Z,39.13
2018-04-23T23:37:46.058Z,36.17
2018-04-23T23:40:15.933Z,39.60
2018-04-23T23:42:45.775Z,37.63
2018-04-23T23:45:16.745Z,35.80
2018-04-23T23:47:47.030Z,38.90
2018-04-23T23:50:16.886Z,38.73
2018-04-23T23:52:46.877Z,42.57
2018-04-23T23:55:17.488Z,39.43
2018-04-23T23:57:47.817Z,42.77
